ZWEL BAWOUDE 32km le 03/07/2017

Recherche par Dossard : par Nom : par Club :

Place Dossard Nom Prenom Cat. Pl. Cat. Temps Club Sexe
1 204 COCHEREAU Oswald V1 1 02:49:48 Tchimbe raid M
2 166 ABATORD Louis-Michel V1 2 03:00:20 M P C L M - AIGLON M
3 52 HENKART STEPHANE SE 1 03:18:26 M
4 158 TRAMMA Fred V2 1 03:19:26 GOLDEN STAR M
5 49 CABON Sebastien V1 3 03:19:26 M
6 118 MENS Fred V2 2 03:22:32 Aiglons du Lamentin M
7 180 ARCADE Baptiste SE 2 03:26:19 M
8 12 PONCHATEAU Jean pierre V1 4 03:30:07 Tchimberaid/ Manikou/ STT/ TLT972 M
9 31 HILDERALD Isnard V2 3 03:30:07 STT M
10 1 PIGAREFF Pascal SE 3 03:34:40 Samaritaine Team Trail M
11 122 BAH Alpha V1 5 03:39:06 TRIATHLON 91 M
12 37 COURDE Rémi SE 4 03:40:42 Team Prefontaine M
13 156 KIBIR Germain V2 4 03:41:04 Tchimbe raid M
14 189 SAUVAGNAC Xavier V2 5 03:44:54 M
15 144 ROUBLIQUE Elisabeth V1 1 03:45:35 Tchimbé Raid F
16 16 PUNU Augustave SE 5 03:47:23 M
17 150 MILCENT Jean-claude V1 6 03:47:32 les Mureaux val de seine M
18 194 PINCEAU Gael SE 6 03:47:32 M
19 66 DESCAS William V1 7 03:48:06 LES BAROUDEURS M
20 70 THORAVAL Laura SE 1 03:48:10 AMCF F
21 160 LAMANDE Steve V2 6 03:48:54 M
22 181 CHATELUS Yorick SE 7 03:51:10 RSMA-M M
23 29 LUCCIN FRANCK SE 8 03:53:08 RENOVATION M
24 33 MACKE Benjamin V1 8 03:53:29 M
25 131 LACRAMPE Louis Felix V2 7 03:54:03 CLUB MANIKOU M
26 17 BEAUSOLEIL Patrice V1 9 03:54:09 M
27 146 VERRES Alexandre V2 8 03:54:16 STT M
28 20 CRÉTÉ MATHIAS V1 10 03:54:33 M
29 178 MONTOUT Eddy V1 11 03:55:31 M
30 27 DELOGE François SE 9 03:56:22 M
31 86 ABDOU SOUFFOU Djouma V1 12 03:57:08 RSMAM M
32 110 MAREM Augustin V2 9 03:59:05 M
33 67 REINE Rodrigue V2 10 04:00:08 M
34 127 GAY HERVE SE 10 04:00:31 MANIKOU - SAG M
35 165 VALETTE Bernard V3 1 04:01:27 club manikou M
36 13 BILL François V1 13 04:04:01 Les Baroudeurs M
37 138 SERGENT Guillaume SE 11 04:04:37 M
38 99 LOUIS JOSEPH Alain V2 11 04:05:22 M
39 58 CHABANEIX Sebastien SE 12 04:05:50 M
40 64 MUCRET Bernard V1 14 04:05:50 M
41 177 ARMEDE Roddy V1 15 04:09:02 M
42 173 SALVADOR Eddy V1 16 04:09:03 club manikou M
43 171 DEFOI Luce V2 1 04:09:26 F
44 84 MINAR Jean-Max V1 17 04:11:55 M
45 101 JOACHIM Rene-Georges V3 2 04:11:57 M
46 115 ANEXIME Alain V2 12 04:12:42 M
47 57 BUCHOU Mélodie SE 2 04:12:51 F
48 185 HOSPICE Jean Pierre V2 13 04:12:53 M
49 65 CLEDELIN Hervé V1 18 04:13:04 M
50 88 GORVIEN GILLES V1 19 04:13:07 M
51 117 CROTET Mathieu SE 13 04:16:07 M
52 159 COURANT Guy V3 3 04:17:07 M
53 42 TAYE JOSEPH V1 20 04:18:04 M
54 179 ADOLPHE Claude V1 21 04:19:00 Sam horizon 2000 M
55 2 CORTINOVIS OLIVIER V1 22 04:19:38 M
56 153 PINARE Pierre V1 23 04:21:07 M
57 132 AGRICOLE FRED V2 14 04:21:13 TEAM LAM-TRAIL972 / MANIKOU M
58 137 LETTY Stéphane V2 15 04:21:13 mairie sportive / CTR M
59 24 ROTIN Youry SE 14 04:21:13 team Lam trail 972 / Club Tchimbé raid M
60 121 GACHON Cécile SE 3 04:22:28 STT F
61 59 MEDDOUR Salah V1 24 04:24:57 33 RIMA M
62 157 LEVY Gabriel V3 4 04:25:01 GOLDEN STAR M
63 139 RONDEAUX David SE 15 04:25:30 Team Babilon M
64 104 OZIER LAFONTAINE David Emilien V1 25 04:26:21 AMCF -TLT972 M
65 105 KERMOISON ALEX V2 16 04:26:46 AMCF M
66 87 EMONIDES Michel V2 17 04:26:58 M
67 36 SABAN SANDRINE V1 2 04:27:08 MAIRIE SPORTIVE F
68 7 LOY Cedric SE 16 04:27:38 M
69 170 RIVALS Fred SE 17 04:27:50 Jc231 triathlon M
70 148 TUCCELLA Thomas SE 18 04:28:49 M
71 119 CHAUVIRE CAROLE V1 3 04:29:19 MIRSA LOISIRS F
72 184 THERESINE Marius V3 5 04:29:54 club manikou M
73 53 TESORIERE Nicolas SE 19 04:30:01 CSAM - RUNANDTRAILMARINE M
74 46 HONORE Thierry SE 20 04:31:29 M
75 14 FABREGUES JEROME V1 26 04:32:21 CLUB MANIKOU M
76 197 BRAVO Yvaille SE 21 04:32:31 GOLDEN STAR M
77 60 HENRY Laurent V2 18 04:33:34 Club Manikou M
78 168 TETU JEAN LOUIS V1 27 04:33:48 club manikou M
79 82 CURFS Hubert V3 6 04:33:53 M
80 98 LELEU Pierre V1 28 04:34:09 M
81 143 SAVARD LOGAN SE 22 04:34:25 M
82 152 RETORY DENIS V2 19 04:35:08 M
83 134 COURTOIS JEREMY SE 23 04:35:41 RSMAM M
84 3 ALLAIN Claude V1 29 04:35:56 M
85 212 ERICHER Eddy V1 30 04:36:16 M
86 93 TOUCHE Benoit V2 20 04:36:44 M
87 145 TODIKROMO Anthony SE 24 04:39:34 RSMAM M
88 113 BLASCZYK Christophe V1 31 04:42:29 Club Manikou M
89 201 LINEL HUGUES V2 21 04:43:14 M
90 209 MACROIX Jacques SE 25 04:43:47 M
91 176 DEVOS ANTOINE V1 32 04:44:27 M
92 39 LERY Eddy V1 33 04:44:58 M
93 40 TONDEUR Gaëtan SE 26 04:45:02 M
94 54 MONTHEARD David V1 34 04:45:28 M
95 207 BAUDIN LUCIEN V2 22 04:45:32 M
96 26 PISTOL Mimi SE 4 04:47:20 F
97 91 BALLAND MARC V2 23 04:47:53 AMCF M
98 205 ADELAIDE Yannick SE 27 04:48:19 M
99 163 BARROIS Claire V1 4 04:50:38 Squale club F
100 48 SAINT JUST Jean yves V1 35 04:51:36 M
101 182 GUILLORIT Agnes V2 2 04:52:04 F
102 50 CHOLVIN Jean Bernard SE 28 04:52:10 M
103 71 BOUTON ROGER V3 7 04:52:28 MIRSA LOISIRS M
104 41 PRIAN CECILE V1 5 04:52:31 F
105 116 BOURCHEIX Charles SE 29 04:53:12 M
106 106 PANCALDI Marie Georges V2 3 04:53:18 F
107 183 LEVIONNOIS Jean-luc V2 24 04:53:24 M
108 155 MAZARGUIL Aurélie SE 5 04:54:30 SQUALE CLUB F
109 135 POULET BASTIEN V1 36 04:54:35 squale club M
110 100 RAVIN CATHIA V1 6 04:55:15 F
111 164 BARROIS Nicolas V1 37 04:56:19 M
112 149 RUCHETON Hugo SE 30 04:56:46 CSLG TRINITE M
113 130 MARAN Valery V1 38 04:57:46 M
114 208 DHULST LLONKA SE 6 04:59:05 F
115 10 SOUFFLET Jérémie SE 31 04:59:22 M
116 95 DELFORGE Mikael SE 32 04:59:42 M
117 4 HONORE Yann V1 39 05:00:20 Tchimbe Raid M
118 140 FÉLICIA Rodrigue SE 33 05:02:49 M
119 61 FIBLEUIL Yvon V2 25 05:03:20 M
120 19 RONOT Rodolphe SE 34 05:03:32 M
121 169 EMONIDES Marie-chantal V2 4 05:03:34 F
122 125 SEYCHELLES Jean-Eudes SE 35 05:03:37 Tchimbé Raid M
123 96 JULIENO Charles V2 26 05:04:16 M
124 44 MARTINON Gaby V2 27 05:04:33 M
125 175 VIALETTE Vincent V1 40 05:08:48 M
126 55 PEDROT Gaetan SE 36 05:09:42 M
127 114 LE TREQUESSER Yves V1 41 05:09:51 M
128 136 POULET LAVISSE ELODIE V1 7 05:11:50 F
129 18 SALAUN Olivier SE 37 05:14:30 M
130 79 REYMOND Sébastien SE 38 05:14:42 M
131 133 SALOMON Nicolas V2 28 05:15:10 Squale / Manikou M
132 68 QUIATOL Sonia V1 8 05:15:21 AMCF F
133 38 MORVILLE Jean-louis V1 42 05:16:25 M
134 69 PIMPY Jean-albert V2 29 05:16:33 AMCF M
135 8 PIGNOL Jerome SE 39 05:16:44 Tchimbe raid M
136 83 BLAMEBLE Pierre V1 43 05:19:03 M
137 192 HELOISE Claude V1 44 05:19:12 M
138 162 BELBACHIR Hakim V1 45 05:21:28 M
139 92 LESIEUR Guillaume SE 40 05:22:22 M
140 56 MANYRI Jacques Francois V1 46 05:22:27 M
141 15 CORANI Cedric SE 41 05:23:42 RSMAM M
142 190 LAVOUMA Claudie V2 5 05:24:20 F
143 191 MURTÉ Josette V2 6 05:24:28 F
144 196 BRIEU Julien V1 47 05:24:39 M
145 97 BERET Eddy V1 48 05:25:20 M
146 51 GAZET Nathalie V1 9 05:26:29 F
147 128 THERME Theodore V3 8 05:28:28 club manikou M
148 35 JULIUS Teddy SE 42 05:29:31 Maross teamraidmarteau M
149 21 COUTE Marie Jose V2 7 05:30:43 Club Manikou F
150 90 RAPHA Danny V3 1 05:34:40 Mairie Sportif de Fort de France F
151 89 DISPAGNE Grégory SE 43 05:35:51 M
152 111 DEWULF Hervé V1 49 05:36:18 Tchimberaid M
153 206 GARNON PASCAL V3 9 05:38:12 M
154 161 LANCLAS Marielle V1 10 05:44:11 club manikou/amcf F
155 11 ALVES DE PINHO Solčne SE 7 05:47:13 F
156 28 GOSSE Valérie V1 11 05:47:18 F
157 107 BIRBA Pascal V1 50 05:47:33 M
158 147 VIOLET Jerome V1 51 05:49:00 M
159 77 DELAHAYE CHRISTOPHE V2 30 05:49:17 M
160 186 SYMPHOR Stephane SE 44 05:49:29 SAM HORIZON M
161 141 OLIERE Marcel V2 31 05:56:34 M
162 151 DEMONIERE Edgard V3 10 05:59:06 M
163 25 PISTOL Olivier V1 52 06:01:21 M
164 45 ENGEL Karine V1 12 06:10:57 F
165 108 GRADUEL Isabelle V2 8 06:14:01 F
166 210 MERIAN Nicolas V1 53 06:22:04 M
167 78 POIDEVAIN Gilles V1 54 06:27:24 M
168 199 ERICHER Marilyne V1 13 06:33:09 F
169 72 BAPTISTE Alain SE 45 06:33:22 M
170 109 BIGAND NATHALIE V1 14 06:44:25 F
171 102 COCHARD EMMANUELLE V1 15 06:44:37 MAIRIE SPORTIVE F
172 9 BENMOUSSA Didier V1 55 06:52:09 M
173 6 TESSIER Lilian V1 56 06:58:45 RSMAM M
174 187 CINNA Mireille V1 16 07:14:01 F
175 188 JEREMIE Tony SE 46 07:14:02 M
176 5 BRUNO BEATRICE SE 8 07:43:00 F